Corinne, UT

8:19 PM MDT on September 17, 2014 (GMT -0600)
Rising S Ranch | Change Station
CLOSE
Current Station
Personal Weather Station
Location: West Warren, UT
Elevation: 4232 ft
Nearby Weather Stations

Elev 4232 ft 41.26 °N, 112.14 °W | Updated 10 seconds ago

Clear
Clear
74.8 °F
Feels Like 77 °F
N
2.0
Wind Variable Wind from SW
Gusts 5.0 mph

Today
High -- | Low -- °F
--% Chance of Precip.
Yesterday
High -- | Low -- °F
Precip. -- in
7:12 AM 7:35 PM
Waning Crescent, 31% visible
Pressure 29.87 in
Visibility 10.0 miles
Clouds Clear
Heat Index 77 °F
Dew Point 47 °F
Humidity 37%
Rainfall 0.00 in
Snow Depth 1 in , 0 in , 1 in
UV 0.0 out of 12
Pollen 5.20 out of 12
Ozone Good
PM2.5 Good
Flu Activity Not available.
METAR KBMC 180155Z AUTO 15007KT 10SM CLR 26/06 A2987 RMK AO1 T02630062

More Conditions Fewer Conditions

Pressure 29.87 in
Visibility 10.0 miles
Clouds Clear
Heat Index 77 °F
Dew Point 47 °F
Humidity 37%
Rainfall 0.00 in
Snow Depth 1 in , 0 in , 1 in
UV 0.0 out of 12
Pollen 5.20 out of 12
Ozone Good
PM2.5 Good
Flu Activity Not available.
METAR KBMC 180155Z AUTO 15007KT 10SM CLR 26/06 A2987 RMK AO1 T02630062

More Conditions Fewer Conditions

10-Day Weather Forecast

Almanac

Astronomy

Sep. 17, 2014 Rise Set
Actual Time 7:12 AM MDT 7:35 PM MDT
Civil Twilight 6:44 AM MDT 8:03 PM MDT
Nautical Twilight 6:12 AM MDT 8:35 PM MDT
Astronomical Twilight 5:38 AM MDT 9:08 PM MDT
Moon 1:12 AM MDT (9/17) 3:50 PM MDT (9/17)
Length of Visible Light 13h 18m
Length of Day
12h 23m
Tomorrow will be 2m 44s shorter.
Waning Crescent, 31% of the Moon is Illuminated
Today
Waning Crescent
Sep 24
New
Oct 1
First Quarter
Oct 8
Full
Oct 15
Last Quarter

Today's Extremes

State Highs State Lows

Community

WunderPhotos

Upload Photos

1,754,266 photos uploaded!

Nearby

Air Quality

  Air Quality AQ Index Pollutant
Yesterday Good
OZONE
Yesterday Good
PM10
Current Good
OZONE
Current Good
PM2.5
Wednesday Good
OZONE
Thursday Good
OZONE
Friday Good
OZONE

Snow Depth

Station Depth Elevation
Lakefork #1 1 in 10100 ft
Chepeta 0 in 10300 ft
Trial Lake 1 in 9960 ft
Temple Fork 0 in 7406 ft
Rock Creek 0 in 7900 ft

Earthquake Activity

City Distance Mag. Time & Date
No recent earthquake activity has been reported nearby.
Minimum magnitude displayed is 2.5.

Coastal Water Temperatures

Place Temperature
No Stations Reporting

Nearby Weather Stations